Airfield :
LOGIN :

Register | Disclaimer

   EN    FR    IT 

 










Legend :    VFR   Marginal VFR   IFR   Intensive IFR   Very Intensive IFR
Visi :
Ceiling :
>= 8 km
>= 3000ft
5 to 8 km
1000 to 3000 ft
1500m to 5 km
500 to 1000 ft
800 to 1500m
200 to 500 ft
< 800m
< 200 ft
Symbols :   Thunderstorms  Fog  Heavy snow  Heavy precipitations  Wind > 20 kt
SIGMETs :     Misc.  Thunderstorms  Icing  Turbulence  Mountain Waves  Volcanic Ashes







- Airport Elevation : 390 ft
- IATA code : NQY
- Download approach charts


EGHQ - Newquay

CURRENT METAR :
  • 131520Z 13019G30KT 9999 FEW022 06/02 Q1009

EXPIRED METARs :
  • 131450Z 13023KT 9999 FEW015 06/02 Q1008
  • 131420Z 12026G36KT 9999 FEW020 06/03 Q1008
  • 131350Z 12024KT 9999 SCT020 06/03 Q1008
  • 131320Z 12025KT 9999 FEW018 06/03 Q1008
  • 131250Z 12027KT 9999 SCT015 06/04 Q1007

TAF TAF EGHQ
Valid from the 13 at 15:00 until the 13 at 22:00 UTC


131400Z 1315/1322 12022KT 9999 BKN015
TEMPO 1315/1322 12025G35KT 7000 RA BKN009
No reported NOTAMs for that airfield.
1 SIGMET reported for the London FIR (EGTT) :
 
Severe turbulence
EGTT SIGMET 02 VALID 131100/131500 EGRR
EGTT LONDON FIR SEV TURB FCST WI N4853 W00746 - N5148 W00630 - N5220 W00530 - N5407 W00530 - N5449 W00512 - N5500 W00518 - N5500 W00414 - N5445 W00421 - N4940 W00343 - N4853 W00746 SFC/FL060 STNR NC=



MET'MAP, your aeronautical weather chart ! - Copyright ORBIFLY December 2007 - Disclaimer

ORBIFLY MET'MAP TEAM :

Programming & Development : Alexandra Zaïnal
Concept & Development : Baudouin d'Aumeries
Co-Development & Prog : Marc-Olivier Méhu
Technical & hardware support : Manuel Goepfert

Contact : metmap@orbifly.com




SOURCES & CREDITS :

   NOAA